Time;durP1;ratioP1;P1;durP2;ratioP2;P2;SDS_P1;SDS_P2;PMS_P1;PMS_P2;Temp;Humidity;BMP_temperature;BMP_pressure;BME280_temperature;BME280_humidity;BME280_pressure;Samples;Min_cycle;Max_cycle;Signal;HPM_P1;HPM_P2
2021/05/01 00:01:19;;;;;;;174.55;70.68;;;;;;;8.76;96.07;94918.66;5009942;28;20034;-67
2021/05/01 00:03:45;;;;;;;137.85;60.90;;;;;;;8.84;94.18;94960.38;5009868;28;20054;-66
2021/05/01 00:06:10;;;;;;;152.55;65.90;;;;;;;8.53;93.76;94940.88;5009922;28;20117;-67
2021/05/01 00:08:36;;;;;;;166.35;67.53;;;;;;;8.73;94.48;94959.03;5009758;28;20454;-65
2021/05/01 00:11:03;;;;;;;173.07;68.28;;;;;;;8.69;95.63;94942.13;4994288;28;20025;-66
2021/05/01 00:13:30;;;;;;;170.20;69.35;;;;;;;9.17;96.09;94960.25;5009831;28;20038;-66
2021/05/01 00:15:55;;;;;;;136.95;61.50;;;;;;;9.17;95.85;94920.44;5008625;28;20069;-66
2021/05/01 00:18:21;;;;;;;139.65;62.80;;;;;;;9.19;95.09;94917.47;5009772;28;20738;-66
2021/05/01 00:20:46;;;;;;;153.93;66.88;;;;;;;9.14;94.54;94920.25;5007930;28;20084;-67
2021/05/01 00:23:12;;;;;;;126.40;58.47;;;;;;;8.51;93.95;94946.47;4997597;28;20025;-66
2021/05/01 00:25:37;;;;;;;134.70;61.58;;;;;;;8.70;95.11;94941.06;5012203;28;20084;-65
2021/05/01 00:28:03;;;;;;;130.77;61.67;;;;;;;8.76;94.33;94925.84;5013548;28;20058;-65
2021/05/01 00:30:29;;;;;;;156.57;65.93;;;;;;;8.86;95.03;94933.59;4996257;28;20046;-66
2021/05/01 00:32:54;;;;;;;137.15;61.80;;;;;;;8.77;93.82;94916.78;5013439;28;20075;-66
2021/05/01 00:35:19;;;;;;;132.60;61.67;;;;;;;8.20;93.47;94935.63;5015734;28;20092;-66
2021/05/01 00:37:45;;;;;;;141.13;59.25;;;;;;;7.96;95.02;94949.03;4995871;28;20046;-65
2021/05/01 00:40:11;;;;;;;134.80;57.92;;;;;;;7.43;97.06;94933.50;5006885;28;20033;-65
2021/05/01 00:42:36;;;;;;;122.60;57.22;;;;;;;7.50;98.19;94944.50;5013129;28;20038;-65
2021/05/01 00:45:04;;;;;;;129.82;59.83;;;;;;;7.67;97.91;94943.16;5013496;28;20129;-66
2021/05/01 00:47:29;;;;;;;136.23;60.45;;;;;;;8.12;97.18;94954.84;5015063;28;20025;-66
2021/05/01 00:49:55;;;;;;;103.45;53.47;;;;;;;7.75;96.59;94953.88;5013072;28;20496;-66
2021/05/01 00:52:20;;;;;;;89.60;51.30;;;;;;;7.91;97.53;94941.19;5013165;28;20061;-66
2021/05/01 00:54:46;;;;;;;85.90;49.90;;;;;;;7.75;96.56;94926.63;5003738;28;20121;-65
2021/05/01 00:57:12;;;;;;;86.82;49.05;;;;;;;7.52;97.76;94923.03;4993541;28;20436;-66
2021/05/01 00:59:37;;;;;;;77.40;47.00;;;;;;;7.56;97.69;94927.44;4993768;28;20026;-65
2021/05/01 01:02:04;;;;;;;85.50;48.13;;;;;;;7.45;97.63;94927.91;4995251;28;20080;-66
2021/05/01 01:04:31;;;;;;;95.07;53.10;;;;;;;7.74;97.45;94907.31;4993662;28;20038;-66
2021/05/01 01:06:56;;;;;;;85.80;48.70;;;;;;;8.19;97.28;94923.47;4993160;28;20046;-65
2021/05/01 01:09:22;;;;;;;102.97;54.35;;;;;;;8.36;97.39;94907.00;4999885;28;20052;-64
2021/05/01 01:11:47;;;;;;;85.70;51.20;;;;;;;8.47;95.72;94928.78;5011045;28;20026;-65
2021/05/01 01:14:13;;;;;;;84.95;48.72;;;;;;;8.57;96.07;94921.44;4995377;28;20022;-65
2021/05/01 01:16:43;;;;;;;75.43;46.67;;;;;;;8.47;95.39;94923.50;5010134;28;20065;-66
2021/05/01 01:19:09;;;;;;;73.68;46.65;;;;;;;8.32;94.74;94938.56;5013019;28;20125;-66
2021/05/01 01:21:50;;;;;;;75.82;45.90;;;;;;;8.06;94.87;94918.94;5004282;28;20116;-67
2021/05/01 01:24:16;;;;;;;78.70;47.08;;;;;;;8.28;95.47;94924.34;4993435;28;20042;-67
2021/05/01 01:26:42;;;;;;;84.60;49.55;;;;;;;8.51;95.20;94933.22;4992924;28;20034;-65
2021/05/01 01:29:13;;;;;;;71.65;43.83;;;;;;;8.30;95.24;94934.66;4995083;28;20717;-66
2021/05/01 01:31:39;;;;;;;65.40;43.85;;;;;;;8.27;94.77;94906.09;4993021;28;20133;-67
2021/05/01 01:34:04;;;;;;;79.65;48.30;;;;;;;8.57;94.95;94923.28;4992527;28;20042;-66
2021/05/01 01:36:30;;;;;;;80.53;49.92;;;;;;;8.68;95.18;94923.88;4993095;28;20396;-67
2021/05/01 01:38:56;;;;;;;83.38;48.58;;;;;;;8.93;95.59;94939.25;4991554;28;20516;-66
2021/05/01 01:41:21;;;;;;;84.40;47.85;;;;;;;9.19;96.32;94947.44;4994729;28;20488;-65
2021/05/01 01:43:47;;;;;;;83.22;50.25;;;;;;;9.35;95.61;94940.72;4991458;28;20042;-65
2021/05/01 01:46:12;;;;;;;87.18;50.13;;;;;;;9.37;95.68;94919.97;4992919;28;20196;-67
2021/05/01 01:48:38;;;;;;;108.95;55.63;;;;;;;9.54;95.25;94931.78;4992385;28;20038;-67
2021/05/01 01:51:04;;;;;;;89.18;51.78;;;;;;;9.55;95.49;94931.47;4995986;28;20392;-66
2021/05/01 01:53:29;;;;;;;92.10;51.83;;;;;;;9.65;95.08;94938.44;5014038;28;20033;-67
2021/05/01 01:55:55;;;;;;;93.57;52.85;;;;;;;9.70;95.24;94943.63;4994763;28;20053;-66
2021/05/01 01:58:21;;;;;;;77.70;47.20;;;;;;;9.60;95.07;94919.97;5012084;28;20046;-66
2021/05/01 02:00:47;;;;;;;72.82;45.13;;;;;;;9.40;93.13;94929.19;5011973;28;20495;-66
2021/05/01 02:03:17;;;;;;;72.85;46.05;;;;;;;9.51;93.76;94941.13;5011877;28;20064;-66
2021/05/01 02:05:44;;;;;;;70.80;45.38;;;;;;;9.20;94.01;94905.75;5010977;28;20050;-66
2021/05/01 02:08:10;;;;;;;70.10;45.47;;;;;;;9.27;92.97;94946.75;4994188;28;20085;-66
2021/05/01 02:10:35;;;;;;;64.45;43.03;;;;;;;9.27;93.34;94946.75;4992344;28;20425;-66
2021/05/01 02:13:01;;;;;;;68.22;44.58;;;;;;;9.29;93.39;94946.44;4991985;28;20092;-66
2021/05/01 02:15:26;;;;;;;71.35;44.55;;;;;;;8.92;92.00;94948.31;4974952;28;20050;-66
2021/05/01 02:17:54;;;;;;;75.85;47.05;;;;;;;9.24;94.54;94949.22;4992217;28;20018;-66
2021/05/01 02:20:25;;;;;;;71.50;44.90;;;;;;;9.28;95.00;94921.78;4993600;28;20472;-66
2021/05/01 02:22:51;;;;;;;70.43;44.97;;;;;;;9.46;94.84;94920.00;4991957;28;20038;-66
2021/05/01 02:25:17;;;;;;;74.68;45.78;;;;;;;9.60;94.93;94926.06;4992057;28;20050;-66
2021/05/01 02:27:43;;;;;;;76.05;46.05;;;;;;;9.62;95.46;94907.97;4991939;28;20138;-66
2021/05/01 02:30:13;;;;;;;76.78;47.38;;;;;;;9.77;94.64;94920.06;4996483;28;20033;-66
2021/05/01 02:32:39;;;;;;;72.65;44.78;;;;;;;9.78;94.46;94908.38;5010984;28;20029;-66
2021/05/01 02:35:07;;;;;;;74.18;46.83;;;;;;;9.80;94.43;94908.84;4993826;28;20026;-66
2021/05/01 02:37:33;;;;;;;67.65;44.85;;;;;;;9.44;90.18;94926.72;5007478;28;20038;-66
2021/05/01 02:39:58;;;;;;;72.68;46.60;;;;;;;9.08;92.61;94933.63;5011409;28;20049;-66
2021/05/01 02:42:24;;;;;;;78.32;48.33;;;;;;;9.11;94.26;94913.69;5004385;28;20038;-66
2021/05/01 02:44:49;;;;;;;80.88;50.33;;;;;;;8.82;95.07;94900.78;4990133;28;20473;-66
2021/05/01 02:47:17;;;;;;;85.82;51.10;;;;;;;9.01;95.23;94927.16;4992682;28;20106;-67
2021/05/01 02:49:42;;;;;;;78.30;49.70;;;;;;;9.12;95.34;94923.19;4991286;28;20035;-66
2021/05/01 02:52:07;;;;;;;76.47;48.05;;;;;;;9.11;95.15;94927.72;4991254;28;20038;-67
2021/05/01 02:54:33;;;;;;;76.00;47.15;;;;;;;8.85;94.67;94932.81;4991582;28;20374;-66
2021/05/01 02:56:58;;;;;;;71.75;47.30;;;;;;;8.32;94.75;94941.22;4994413;28;20085;-67
2021/05/01 02:59:24;;;;;;;74.55;47.95;;;;;;;8.13;96.33;94945.81;4995320;28;20388;-67
2021/05/01 03:01:49;;;;;;;75.97;48.20;;;;;;;8.43;96.05;94923.28;5010713;28;20076;-66
2021/05/01 03:04:14;;;;;;;81.55;50.15;;;;;;;8.54;96.17;94918.56;4997557;28;20030;-66
2021/05/01 03:06:40;;;;;;;76.07;49.10;;;;;;;8.51;95.01;94929.78;4991391;28;20548;-66
2021/05/01 03:09:06;;;;;;;80.18;50.38;;;;;;;8.55;95.12;94928.13;4991034;28;20038;-67
2021/05/01 03:11:31;;;;;;;73.40;49.90;;;;;;;8.20;95.89;94892.47;4992718;28;20029;-66
2021/05/01 03:13:57;;;;;;;76.32;48.97;;;;;;;7.88;97.08;94893.28;5010362;28;20125;-66
2021/05/01 03:16:22;;;;;;;79.30;49.95;;;;;;;8.09;96.82;94897.16;5011083;28;20050;-67
2021/05/01 03:18:48;;;;;;;87.15;54.97;;;;;;;8.42;96.68;94905.81;5010429;28;20040;-67
2021/05/01 03:21:13;;;;;;;74.22;48.33;;;;;;;8.00;95.22;94877.72;5010006;28;20044;-67
2021/05/01 03:23:39;;;;;;;85.50;53.38;;;;;;;8.34;96.70;94890.56;5010373;28;20105;-67
2021/05/01 03:26:04;;;;;;;75.65;49.67;;;;;;;8.20;95.04;94887.16;5012312;28;20032;-67
2021/05/01 03:28:29;;;;;;;82.25;50.85;;;;;;;8.43;95.74;94874.81;4995060;28;20121;-66
2021/05/01 03:30:55;;;;;;;78.97;49.85;;;;;;;8.77;95.94;94883.09;5001686;28;20034;-66
2021/05/01 03:33:21;;;;;;;66.15;44.88;;;;;;;8.98;95.21;94893.25;5010215;28;20484;-66
2021/05/01 03:35:47;;;;;;;76.03;49.45;;;;;;;9.03;95.23;94859.44;5010434;28;20092;-66
2021/05/01 03:38:12;;;;;;;73.53;49.20;;;;;;;9.15;95.16;94845.63;5012156;28;20114;-67
2021/05/01 03:40:38;;;;;;;71.13;46.80;;;;;;;9.40;95.44;94867.34;5010001;28;20149;-66
2021/05/01 03:43:05;;;;;;;74.75;47.97;;;;;;;9.44;95.11;94866.44;4998299;28;20050;-66
2021/05/01 03:45:30;;;;;;;77.25;47.63;;;;;;;9.48;94.67;94866.63;4977163;28;20045;-66
2021/05/01 03:47:56;;;;;;;71.00;49.33;;;;;;;9.53;95.08;94853.22;4990477;28;20042;-67
2021/05/01 03:50:21;;;;;;;70.60;47.83;;;;;;;9.66;94.84;94857.66;4992057;28;20034;-66
2021/05/01 03:52:47;;;;;;;78.00;50.28;;;;;;;9.59;95.03;94849.34;4990363;28;20784;-67
2021/05/01 03:55:13;;;;;;;76.63;50.13;;;;;;;9.67;94.87;94858.44;4989153;28;20092;-67
2021/05/01 03:57:38;;;;;;;79.13;50.88;;;;;;;9.69;94.13;94857.06;4978182;28;20054;-67
2021/05/01 04:00:05;;;;;;;84.10;52.25;;;;;;;9.62;94.30;94852.19;4990342;28;20038;-66
2021/05/01 04:02:31;;;;;;;75.68;49.63;;;;;;;9.49;94.25;94842.44;4974291;28;20551;-67
2021/05/01 04:04:56;;;;;;;77.82;50.30;;;;;;;9.54;94.24;94844.97;5009618;28;20042;-67
2021/05/01 04:07:21;;;;;;;83.20;51.83;;;;;;;9.45;93.92;94849.44;5009853;28;20061;-66
2021/05/01 04:09:47;;;;;;;86.65;52.55;;;;;;;9.45;94.55;94848.66;5000141;28;20495;-66
2021/05/01 04:12:12;;;;;;;82.68;52.75;;;;;;;9.35;94.56;94833.75;4990166;28;20038;-67
2021/05/01 04:14:37;;;;;;;80.80;50.83;;;;;;;9.42;94.73;94847.41;4990753;28;20080;-67
2021/05/01 04:17:04;;;;;;;84.18;54.13;;;;;;;9.19;94.50;94811.31;5011690;28;20022;-67
2021/05/01 04:19:29;;;;;;;79.32;50.65;;;;;;;9.36;94.30;94827.34;5009677;28;20038;-66
2021/05/01 04:22:03;;;;;;;86.80;52.25;;;;;;;9.36;94.92;94830.78;5009349;28;20550;-67
2021/05/01 04:24:30;;;;;;;77.28;49.63;;;;;;;9.36;93.61;94853.88;5002979;28;20062;-67
2021/05/01 04:26:55;;;;;;;75.63;51.08;;;;;;;9.25;93.89;94853.34;4972698;28;20042;-67
2021/05/01 04:29:21;;;;;;;75.93;50.67;;;;;;;8.80;94.66;94853.34;4992130;28;20492;-69
2021/05/01 04:31:46;;;;;;;74.38;48.05;;;;;;;8.52;94.55;94841.22;4989628;28;20474;-68
2021/05/01 04:34:11;;;;;;;88.05;53.78;;;;;;;8.50;95.24;94836.22;4982289;28;20039;-66
2021/05/01 04:36:37;;;;;;;78.68;49.80;;;;;;;8.55;95.02;94877.75;4997118;28;20044;-67
2021/05/01 04:39:03;;;;;;;78.43;50.60;;;;;;;8.95;95.04;94877.94;5009640;28;20400;-67
2021/05/01 04:41:28;;;;;;;78.90;49.83;;;;;;;9.07;95.74;94846.38;5011311;28;20030;-67
2021/05/01 04:43:53;;;;;;;70.38;48.40;;;;;;;9.60;95.51;94878.25;5009490;28;20046;-66
2021/05/01 04:46:19;;;;;;;74.95;50.08;;;;;;;9.44;92.56;94887.69;5009550;28;20495;-67
2021/05/01 04:48:44;;;;;;;70.60;48.38;;;;;;;9.50;92.94;94880.38;5009514;28;20114;-66
2021/05/01 04:51:11;;;;;;;71.05;49.75;;;;;;;9.72;94.44;94875.03;4991455;28;20070;-68
2021/05/01 04:53:36;;;;;;;69.40;47.42;;;;;;;9.25;90.92;94879.13;5009407;28;20030;-66
2021/05/01 04:56:02;;;;;;;73.57;50.17;;;;;;;8.83;93.46;94894.38;5011374;28;20756;-66
2021/05/01 04:58:27;;;;;;;69.18;47.58;;;;;;;9.05;93.27;94875.06;5009239;28;20095;-67
2021/05/01 05:00:52;;;;;;;69.20;48.88;;;;;;;8.99;93.14;94882.34;5009436;28;20042;-66
2021/05/01 05:03:18;;;;;;;74.60;49.10;;;;;;;9.05;94.23;94870.53;5009381;28;20387;-66
2021/05/01 05:05:43;;;;;;;78.65;51.40;;;;;;;9.25;94.52;94892.38;5007819;28;20037;-66
2021/05/01 05:08:09;;;;;;;69.55;48.13;;;;;;;9.27;93.18;94891.00;5012720;28;20014;-67
2021/05/01 05:10:34;;;;;;;74.30;49.03;;;;;;;9.55;93.92;94882.91;5012996;28;20038;-66
2021/05/01 05:12:59;;;;;;;65.40;47.05;;;;;;;9.88;94.29;94864.81;5012739;28;20069;-66
2021/05/01 05:15:25;;;;;;;58.97;45.63;;;;;;;10.08;93.21;94874.91;5013109;28;20033;-67
2021/05/01 05:17:50;;;;;;;61.10;45.95;;;;;;;10.22;93.16;94877.44;5012674;28;20022;-67
2021/05/01 05:20:16;;;;;;;61.92;45.80;;;;;;;10.44;92.58;94870.50;5014152;28;20056;-68
2021/05/01 05:22:44;;;;;;;51.53;41.97;;;;;;;10.79;92.59;94848.19;5012633;28;20403;-66
2021/05/01 05:25:10;;;;;;;49.67;40.72;;;;;;;11.18;91.58;94851.81;5012928;28;20038;-66
2021/05/01 05:27:36;;;;;;;47.20;40.47;;;;;;;11.48;91.12;94854.63;5012542;28;20412;-67
2021/05/01 05:30:01;;;;;;;46.90;38.22;;;;;;;11.77;89.12;94857.34;5012761;28;20037;-66
2021/05/01 05:32:27;;;;;;;43.47;37.38;;;;;;;12.10;89.73;94854.16;5014418;28;20375;-67
2021/05/01 05:34:53;;;;;;;41.17;36.70;;;;;;;12.41;88.07;94854.63;5012597;28;20092;-67
2021/05/01 05:37:19;;;;;;;43.25;37.42;;;;;;;12.56;87.72;94850.63;5012237;28;20121;-66
2021/05/01 05:39:48;;;;;;;42.70;38.15;;;;;;;12.68;87.35;94841.91;5012581;28;20429;-67
2021/05/01 05:42:15;;;;;;;44.72;37.78;;;;;;;12.80;86.76;94850.03;5012395;28;20041;-67
2021/05/01 05:44:45;;;;;;;42.10;37.65;;;;;;;12.65;85.38;94850.59;5012632;28;20660;-68
2021/05/01 05:47:15;;;;;;;40.63;36.30;;;;;;;12.57;86.42;94830.84;5014030;28;20029;-67
2021/05/01 05:49:40;;;;;;;41.08;36.67;;;;;;;12.29;86.28;94816.44;5010611;28;20036;-67
2021/05/01 05:52:06;;;;;;;46.38;36.42;;;;;;;12.53;86.85;94821.91;5012087;28;20030;-67
2021/05/01 05:54:31;;;;;;;40.28;36.03;;;;;;;12.62;86.97;94824.53;5012253;28;20030;-67
2021/05/01 05:56:57;;;;;;;40.67;35.40;;;;;;;12.63;86.80;94818.88;5012128;28;20048;-66
2021/05/01 05:59:23;;;;;;;42.15;36.13;;;;;;;12.72;86.69;94824.16;5014131;28;20105;-67
2021/05/01 06:01:48;;;;;;;44.47;39.13;;;;;;;12.75;86.98;94823.53;5011753;28;20500;-67
2021/05/01 06:04:16;;;;;;;41.42;36.92;;;;;;;13.00;87.14;94824.44;5010690;28;20042;-67
2021/05/01 06:06:51;;;;;;;39.88;35.55;;;;;;;13.17;86.89;94815.50;5011911;28;20574;-67
2021/05/01 06:09:17;;;;;;;38.67;34.53;;;;;;;12.69;83.98;94803.44;5011990;28;20054;-67
2021/05/01 06:11:43;;;;;;;37.95;33.88;;;;;;;12.64;83.50;94804.44;5011589;28;20025;-68
2021/05/01 06:14:10;;;;;;;38.08;33.80;;;;;;;13.10;84.98;94799.97;5013790;28;20056;-67
2021/05/01 06:16:38;;;;;;;40.75;36.50;;;;;;;13.24;85.55;94800.53;5011828;28;20031;-67
2021/05/01 06:19:03;;;;;;;37.38;33.35;;;;;;;12.94;84.09;94794.47;5011248;28;20113;-67
2021/05/01 06:21:29;;;;;;;37.00;33.10;;;;;;;13.23;84.91;94793.63;5010884;28;20117;-67
2021/05/01 06:23:55;;;;;;;35.92;32.17;;;;;;;13.36;84.69;94778.44;5011729;28;20076;-67
2021/05/01 06:26:20;;;;;;;34.72;31.23;;;;;;;13.63;84.90;94786.94;5013494;28;20026;-67
2021/05/01 06:28:47;;;;;;;34.85;31.30;;;;;;;13.79;84.26;94771.81;5011378;28;20045;-64
2021/05/01 06:31:13;;;;;;;32.90;29.67;;;;;;;13.96;82.99;94766.25;4993658;28;20080;-68
2021/05/01 06:33:40;;;;;;;32.08;28.88;;;;;;;14.25;83.59;94777.84;5011585;28;20427;-68
2021/05/01 06:36:07;;;;;;;31.92;28.60;;;;;;;13.75;80.84;94786.97;5011439;28;20034;-68
2021/05/01 06:38:34;;;;;;;30.80;27.73;;;;;;;14.00;82.01;94767.16;5013027;28;20105;-66
2021/05/01 06:41:03;;;;;;;31.15;28.25;;;;;;;14.52;81.89;94787.88;5011279;28;20038;-67
2021/05/01 06:43:45;;;;;;;30.20;27.25;;;;;;;14.92;82.46;94789.03;5011085;28;20467;-67
2021/05/01 06:46:13;;;;;;;28.77;26.02;;;;;;;14.96;82.29;94782.66;4993583;28;20080;-67
2021/05/01 06:48:39;;;;;;;29.40;26.55;;;;;;;14.96;81.57;94806.75;5010882;28;20129;-67
2021/05/01 06:51:04;;;;;;;28.83;26.23;;;;;;;14.77;81.14;94815.38;5010600;28;20128;-68
2021/05/01 06:53:30;;;;;;;30.48;27.40;;;;;;;14.98;81.85;94814.44;5012757;28;20026;-68
2021/05/01 06:56:04;;;;;;;30.05;27.10;;;;;;;15.26;80.55;94814.47;5011208;28;20040;-67
2021/05/01 06:58:31;;;;;;;30.52;27.50;;;;;;;15.20;79.33;94811.25;5010831;28;20141;-67
2021/05/01 07:00:59;;;;;;;29.48;26.60;;;;;;;15.46;79.67;94813.50;5010864;28;20042;-68
2021/05/01 07:03:28;;;;;;;26.63;24.40;;;;;;;15.48;78.48;94813.16;4995154;28;20034;-66
2021/05/01 07:05:54;;;;;;;25.85;23.45;;;;;;;15.37;77.30;94815.53;5012265;28;20113;-69
2021/05/01 07:08:19;;;;;;;27.75;25.35;;;;;;;15.11;77.58;94823.25;5032479;28;20108;-66
2021/05/01 07:10:45;;;;;;;31.20;28.10;;;;;;;14.66;79.33;94810.84;5030813;28;20120;-71
2021/05/01 07:13:14;;;;;;;27.20;24.75;;;;;;;14.54;80.08;94784.88;5016192;28;20523;-67
2021/05/01 07:15:41;;;;;;;28.95;26.27;;;;;;;14.56;78.65;94777.28;5018327;28;20038;-67
2021/05/01 07:18:10;;;;;;;29.23;26.63;;;;;;;14.66;78.21;94800.13;5030078;28;20041;-66
2021/05/01 07:20:36;;;;;;;26.50;24.00;;;;;;;15.01;77.56;94793.13;5032613;28;20045;-71
2021/05/01 07:23:02;;;;;;;27.63;25.13;;;;;;;14.92;79.25;94768.38;5009378;28;20522;-70
2021/05/01 07:25:27;;;;;;;24.92;22.73;;;;;;;15.36;79.27;94805.94;5025155;28;20038;-68
2021/05/01 07:27:56;;;;;;;23.25;21.45;;;;;;;15.27;78.91;94763.22;5028042;28;20053;-67
2021/05/01 07:30:24;;;;;;;21.17;19.42;;;;;;;15.60;77.57;94797.75;5029793;28;20069;-68
2021/05/01 07:32:55;;;;;;;19.95;18.42;;;;;;;15.26;76.08;94776.97;5030531;28;20352;-70
2021/05/01 07:35:23;;;;;;;21.67;19.88;;;;;;;15.24;76.43;94788.00;5031009;28;20025;-69
2021/05/01 07:37:50;;;;;;;20.83;19.10;;;;;;;15.08;77.81;94769.19;5030575;28;20036;-67
2021/05/01 07:40:22;;;;;;;23.15;20.98;;;;;;;14.13;66.63;94759.16;5030010;28;20041;-68
2021/05/01 07:42:49;;;;;;;23.30;21.20;;;;;;;14.82;77.76;94774.22;5011059;28;20041;-65
2021/05/01 07:45:20;;;;;;;21.80;19.85;;;;;;;14.51;74.59;94742.72;5030126;28;20423;-73
2021/05/01 07:47:49;;;;;;;22.63;20.73;;;;;;;15.00;77.42;94772.03;5012243;28;20176;-68
2021/05/01 07:50:15;;;;;;;21.58;19.77;;;;;;;13.97;73.20;94765.16;5031563;28;20033;-69
2021/05/01 07:52:41;;;;;;;23.50;21.38;;;;;;;14.49;75.65;94751.09;5028557;28;20030;-70
2021/05/01 07:55:06;;;;;;;23.15;21.15;;;;;;;15.04;76.06;94759.50;5028772;28;20514;-67
2021/05/01 07:57:32;;;;;;;22.27;20.55;;;;;;;14.96;72.39;94744.38;5029822;28;20099;-68
2021/05/01 07:59:57;;;;;;;23.65;21.48;;;;;;;14.65;72.17;94732.44;5029726;28;20087;-65
2021/05/01 08:02:23;;;;;;;22.63;20.58;;;;;;;14.49;70.95;94740.41;5031556;28;20164;-67
2021/05/01 08:04:48;;;;;;;23.80;21.67;;;;;;;13.15;66.97;94730.34;5029977;28;20075;-66
2021/05/01 08:07:13;;;;;;;22.10;20.05;;;;;;;12.59;75.26;94703.25;5028487;28;20037;-66
2021/05/01 08:09:39;;;;;;;23.15;21.20;;;;;;;13.49;76.22;94715.09;5028332;28;20045;-65
2021/05/01 08:12:04;;;;;;;22.42;20.50;;;;;;;12.55;74.90;94653.53;5029155;28;20044;-69
2021/05/01 08:14:30;;;;;;;22.02;20.15;;;;;;;12.58;73.77;94629.63;5031672;28;20025;-65
2021/05/01 08:16:55;;;;;;;20.13;18.55;;;;;;;12.55;72.11;94656.22;5029279;28;20037;-63
2021/05/01 08:19:21;;;;;;;20.27;18.58;;;;;;;12.37;76.36;94635.00;5011494;28;20125;-68
2021/05/01 08:21:46;;;;;;;18.52;17.13;;;;;;;12.96;76.17;94693.50;5028696;28;20050;-67
2021/05/01 08:24:11;;;;;;;20.65;18.98;;;;;;;13.24;71.68;94700.91;5029633;28;20141;-66
2021/05/01 08:26:37;;;;;;;19.35;17.77;;;;;;;13.12;72.73;94688.31;5028742;28;20513;-66
2021/05/01 08:29:03;;;;;;;18.55;17.02;;;;;;;13.21;73.45;94677.53;5031083;28;20021;-66
2021/05/01 08:31:28;;;;;;;19.02;17.33;;;;;;;12.94;74.27;94689.56;5027522;28;20045;-65
2021/05/01 08:33:54;;;;;;;19.80;18.13;;;;;;;12.77;73.02;94708.44;5029571;28;20076;-65
2021/05/01 08:36:20;;;;;;;18.15;16.75;;;;;;;12.74;75.60;94637.81;5027281;28;20037;-67
2021/05/01 08:38:45;;;;;;;18.60;17.20;;;;;;;13.18;74.36;94662.94;5028694;28;20051;-68
2021/05/01 08:41:11;;;;;;;17.02;15.73;;;;;;;13.44;69.17;94654.66;5031068;28;20021;-65
2021/05/01 08:43:36;;;;;;;17.88;16.58;;;;;;;14.02;64.66;94667.88;5031610;28;20088;-64
2021/05/01 08:46:12;;;;;;;17.85;16.42;;;;;;;14.37;65.45;94660.09;5033087;28;20498;-64
2021/05/01 08:48:38;;;;;;;14.55;13.45;;;;;;;14.37;63.99;94659.31;5032985;28;20136;-63
2021/05/01 08:51:04;;;;;;;14.77;13.68;;;;;;;14.69;71.27;94657.56;5031125;28;20124;-64
2021/05/01 08:53:30;;;;;;;14.45;13.35;;;;;;;14.42;64.31;94675.16;5034852;28;20025;-65
2021/05/01 08:55:56;;;;;;;14.27;13.13;;;;;;;13.98;69.61;94697.19;5033287;28;20037;-65
2021/05/01 08:58:21;;;;;;;14.00;13.00;;;;;;;14.08;64.73;94713.91;5012212;28;20042;-66
2021/05/01 09:00:50;;;;;;;13.80;12.70;;;;;;;13.94;66.50;94728.38;5022874;28;20049;-65
2021/05/01 09:03:19;;;;;;;13.32;12.30;;;;;;;14.21;70.74;94723.47;5032400;28;20087;-65
2021/05/01 09:05:46;;;;;;;13.40;12.40;;;;;;;14.77;70.13;94696.81;5032532;28;20464;-66
2021/05/01 09:08:13;;;;;;;14.07;12.98;;;;;;;14.70;67.79;94670.63;5033298;28;20604;-65
2021/05/01 09:10:39;;;;;;;14.35;13.25;;;;;;;15.33;65.37;94716.28;5032210;28;20506;-67
2021/05/01 09:13:17;;;;;;;14.32;13.20;;;;;;;15.46;60.20;94725.03;5030620;28;20046;-65
2021/05/01 09:16:09;;;;;;;14.45;13.35;;;;;;;15.69;65.79;94721.78;5011524;28;20407;-63
2021/05/01 09:18:55;;;;;;;14.43;13.32;;;;;;;15.04;60.11;94709.41;5020256;28;20041;-64
2021/05/01 09:21:23;;;;;;;14.70;13.60;;;;;;;15.24;60.71;94696.91;5030590;28;20112;-66
2021/05/01 09:23:50;;;;;;;14.95;13.75;;;;;;;14.78;60.43;94669.69;5032212;28;20024;-66
2021/05/01 09:26:22;;;;;;;14.55;13.45;;;;;;;15.23;61.51;94675.81;5034087;28;20475;-66
2021/05/01 09:28:50;;;;;;;14.73;13.63;;;;;;;15.30;58.95;94666.06;5031653;28;20037;-65
2021/05/01 09:31:18;;;;;;;15.30;14.13;;;;;;;15.77;58.86;94689.44;5031893;28;20040;-66
2021/05/01 09:33:51;;;;;;;16.23;14.93;;;;;;;15.51;61.09;94636.34;5030568;28;20037;-65
2021/05/01 09:36:19;;;;;;;14.30;13.20;;;;;;;16.11;58.92;94679.09;5031038;28;20037;-66
2021/05/01 09:38:49;;;;;;;15.40;14.30;;;;;;;15.68;59.14;94669.28;5030710;28;20105;-71
2021/05/01 09:41:22;;;;;;;14.68;13.48;;;;;;;15.51;60.75;94673.09;5034182;28;20022;-68
2021/05/01 09:44:06;;;;;;;13.40;12.40;;;;;;;15.13;60.75;94626.22;5030438;28;20121;-77
2021/05/01 09:46:38;;;;;;;13.48;12.48;;;;;;;14.87;58.49;94664.19;5014425;28;20033;-68
2021/05/01 09:49:03;;;;;;;;;;;;;;;15.20;58.27;94666.59;4995155;28;20125;-67
2021/05/01 09:51:46;;;;;;;14.07;13.07;;;;;;;15.41;59.63;94665.56;5017842;28;20012;-65
2021/05/01 09:54:16;;;;;;;12.75;11.68;;;;;;;15.82;63.78;94664.28;5031719;28;20044;-66
2021/05/01 09:56:43;;;;;;;12.43;11.45;;;;;;;16.13;62.60;94658.06;5031867;28;20025;-66
2021/05/01 09:59:09;;;;;;;13.43;12.43;;;;;;;16.48;58.27;94649.19;5033879;28;20022;-66
2021/05/01 10:01:35;;;;;;;14.70;13.60;;;;;;;16.11;57.63;94649.56;5031773;28;20041;-66
2021/05/01 10:04:20;;;;;;;16.77;15.48;;;;;;;15.63;58.64;94666.84;5031820;28;20029;-66
2021/05/01 10:06:53;;;;;;;16.30;14.90;;;;;;;15.89;62.18;94663.66;5030160;28;20087;-66
2021/05/01 10:09:27;;;;;;;16.63;15.18;;;;;;;15.49;58.04;94656.56;5031052;28;20096;-67
2021/05/01 10:12:05;;;;;;;16.50;15.20;;;;;;;15.60;62.93;94669.09;5031334;28;20109;-67
2021/05/01 10:14:40;;;;;;;15.07;13.98;;;;;;;15.35;63.90;94673.06;5033489;28;20105;-69
2021/05/01 10:17:06;;;;;;;14.88;13.68;;;;;;;14.23;59.51;94673.09;5031576;28;20527;-66
2021/05/01 10:19:45;;;;;;;17.25;15.88;;;;;;;14.09;64.63;94670.78;5030992;28;20095;-66
2021/05/01 10:22:41;;;;;;;17.52;16.02;;;;;;;14.28;66.46;94670.97;5029755;28;20029;-66
2021/05/01 10:25:17;;;;;;;17.10;15.70;;;;;;;14.28;65.23;94662.94;5031003;28;20037;-67
2021/05/01 10:27:42;;;;;;;16.88;15.38;;;;;;;14.56;65.30;94670.22;5030969;28;20052;-66
2021/05/01 10:30:27;;;;;;;16.50;14.93;;;;;;;14.55;62.93;94658.75;5031269;28;20034;-66
2021/05/01 10:32:58;;;;;;;16.38;15.07;;;;;;;14.31;63.04;94648.88;5030952;28;20072;-65
2021/05/01 10:35:23;;;;;;;16.30;14.98;;;;;;;14.36;63.00;94652.41;5033238;28;20530;-66
2021/05/01 10:37:54;;;;;;;16.48;15.18;;;;;;;14.64;63.98;94652.44;5011591;28;20121;-66
2021/05/01 10:40:19;;;;;;;17.03;15.63;;;;;;;13.89;61.41;94664.44;5025646;28;20537;-66
2021/05/01 10:42:45;;;;;;;16.52;15.23;;;;;;;14.30;67.98;94659.91;5029971;28;20037;-66
2021/05/01 10:45:12;;;;;;;18.13;16.60;;;;;;;14.38;63.35;94653.63;5030631;28;20552;-66
2021/05/01 10:47:37;;;;;;;16.25;14.95;;;;;;;14.61;67.74;94629.06;5029923;28;20487;-64
2021/05/01 10:50:23;;;;;;;16.40;15.00;;;;;;;14.94;64.71;94632.22;5032067;28;20029;-67
2021/05/01 10:52:49;;;;;;;17.45;15.68;;;;;;;14.71;64.06;94639.28;5030624;28;20042;-65
2021/05/01 10:55:16;;;;;;;17.35;15.90;;;;;;;15.01;63.06;94635.09;5030337;28;20072;-66
2021/05/01 10:57:54;;;;;;;18.40;16.80;;;;;;;15.06;61.75;94634.84;5009285;28;20034;-66
2021/05/01 11:00:21;;;;;;;17.10;15.60;;;;;;;14.74;66.41;94623.31;5017070;28;20054;-70
2021/05/01 11:02:48;;;;;;;17.80;16.30;;;;;;;14.82;63.86;94626.94;5030691;28;20490;-67
2021/05/01 11:05:13;;;;;;;16.65;15.25;;;;;;;14.93;62.86;94630.69;5031610;28;20119;-71
2021/05/01 11:07:43;;;;;;;16.40;15.05;;;;;;;14.73;62.00;94632.44;5012429;28;20452;-67
2021/05/01 11:10:11;;;;;;;17.20;15.77;;;;;;;14.70;61.08;94635.81;5023612;28;20041;-67
2021/05/01 11:12:39;;;;;;;16.83;15.43;;;;;;;14.44;65.55;94630.09;5030400;28;20037;-67
2021/05/01 11:15:08;;;;;;;16.73;15.32;;;;;;;14.01;63.12;94643.03;5029092;28;20483;-67
2021/05/01 11:17:42;;;;;;;16.95;15.60;;;;;;;13.70;62.94;94640.16;5032200;28;20036;-69
2021/05/01 11:20:18;;;;;;;17.30;15.85;;;;;;;13.34;67.83;94643.63;5030251;28;20064;-65